Time;durP1;ratioP1;P1;durP2;ratioP2;P2;SDS_P1;SDS_P2;PMS_P1;PMS_P2;Temp;Humidity;BMP_temperature;BMP_pressure;BME280_temperature;BME280_humidity;BME280_pressure;Samples;Min_cycle;Max_cycle;Signal;HPM_P1;HPM_P2
2021/01/15 03:00:28;;;;;;;2.72;1.88;;;;;;;0.43;59.67;98590.22;5392054;23;20346;31
2021/01/15 03:03:41;;;;;;;3.15;2.25;;;;;;;0.39;58.79;98581.97;5329454;23;20200;-81
2021/01/15 03:15:22;;;;;;;1.55;1.45;;;;;;;0.32;57.63;98568.88;5225867;23;20070;-82
2021/01/15 03:18:02;;;;;;;1.30;1.20;;;;;;;0.28;57.04;98569.53;4935604;29;20040;-82
2021/01/15 03:20:31;;;;;;;3.90;1.70;;;;;;;0.23;56.75;98564.97;4923885;29;20032;-79
2021/01/15 03:22:57;;;;;;;1.80;1.52;;;;;;;0.27;56.76;98568.75;4916917;29;20408;-78
2021/01/15 03:25:22;;;;;;;2.03;1.52;;;;;;;0.30;56.79;98578.03;4917368;29;20472;-78
2021/01/15 03:27:49;;;;;;;1.83;1.38;;;;;;;0.30;56.70;98578.03;4915952;29;20016;-78
2021/01/15 03:30:36;;;;;;;2.40;1.58;;;;;;;0.27;56.18;98574.00;4917783;29;20126;-78
2021/01/15 03:33:14;;;;;;;1.63;1.50;;;;;;;0.32;56.11;98568.09;4930261;29;20059;-85
2021/01/15 04:02:59;;;;;;;4.32;1.90;;;;;;;0.26;55.78;98601.31;5454261;23;20081;-82
2021/01/15 04:05:26;;;;;;;2.00;1.80;;;;;;;0.26;55.75;98603.16;4830907;29;20524;-81
2021/01/15 04:07:57;;;;;;;3.38;1.70;;;;;;;0.29;56.09;98607.97;4846001;29;20041;-81
2021/01/15 04:10:22;;;;;;;2.20;1.48;;;;;;;0.27;55.99;98604.75;4847561;29;20491;-80
2021/01/15 04:12:49;;;;;;;3.08;1.73;;;;;;;0.27;55.75;98615.28;4846370;29;20029;-81
2021/01/15 04:15:45;;;;;;;1.60;1.50;;;;;;;0.28;56.17;98619.50;4848018;29;20025;-81
2021/01/15 04:51:57;;;;;;;3.92;2.05;;;;;;;0.29;56.05;98639.53;4871496;29;20455;-81
2021/01/15 05:21:15;;;;;;;3.20;2.00;;;;;;;0.31;55.41;98659.34;5978008;23;20859;-82
2021/01/15 05:23:41;;;;;;;3.17;2.08;;;;;;;0.28;55.69;98666.84;4930989;29;20051;-79
2021/01/15 05:26:06;;;;;;;1.98;1.52;;;;;;;0.35;55.45;98675.47;4924511;29;20047;-76
2021/01/15 05:28:33;;;;;;;2.78;1.70;;;;;;;0.36;55.11;98685.00;4930589;29;20032;-75
2021/01/15 05:31:03;;;;;;;4.30;2.20;;;;;;;0.37;55.33;98689.22;4919732;29;20028;-80
2021/01/15 05:33:33;;;;;;;3.78;1.73;;;;;;;0.36;55.37;98689.47;4940177;23;20041;-81
2021/01/15 05:36:27;;;;;;;2.83;1.65;;;;;;;0.38;55.35;98693.47;4880013;29;20009;-82
2021/01/15 05:39:18;;;;;;;3.55;1.55;;;;;;;0.39;54.99;98705.63;4878388;29;20076;-82
2021/01/15 05:41:46;;;;;;;3.38;1.92;;;;;;;0.42;55.24;98712.25;4859684;29;20054;-81
2021/01/15 05:44:33;;;;;;;4.00;2.63;;;;;;;0.43;55.05;98711.25;4860332;29;20025;-82
2021/01/15 05:47:00;;;;;;;7.22;2.67;;;;;;;0.42;54.93;98707.78;4861777;29;20041;-82
2021/01/15 05:49:29;;;;;;;9.93;4.13;;;;;;;0.43;54.43;98706.78;4860625;29;20029;-80
2021/01/15 05:52:08;;;;;;;3.78;2.75;;;;;;;0.48;54.77;98706.13;4867098;29;20021;-82
2021/01/15 05:54:34;;;;;;;4.90;2.35;;;;;;;0.52;54.64;98714.38;4858443;29;20025;-81
2021/01/15 05:57:01;;;;;;;3.33;2.25;;;;;;;0.55;54.70;98720.03;4862135;29;20036;-81
2021/01/15 06:05:17;;;;;;;4.40;2.03;;;;;;;0.74;54.42;98733.19;5054125;23;20063;-82
2021/01/15 06:14:02;;;;;;;4.97;2.80;;;;;;;1.00;54.09;98758.44;5838345;23;20043;-83
2021/01/15 06:16:49;;;;;;;2.55;2.17;;;;;;;1.00;54.13;98763.69;4911433;29;20048;-82
2021/01/15 06:19:27;;;;;;;3.80;2.45;;;;;;;1.08;54.23;98752.03;4906701;29;20092;-81
2021/01/15 07:59:31;;;;;;;3.25;2.35;;;;;;;2.76;48.83;98907.97;4954952;29;20100;-83
2021/01/15 08:18:00;;;;;;;3.30;2.20;;;;;;;2.89;49.08;98910.38;4914617;29;20039;-84
2021/01/15 08:35:37;;;;;;;3.15;2.05;;;;;;;3.25;48.02;98937.63;4934425;29;20055;-82
2021/01/15 08:49:08;;;;;;;5.15;2.58;;;;;;;3.46;47.25;98954.72;4794708;29;20063;-83
2021/01/15 08:56:08;;;;;;;3.08;2.08;;;;;;;3.56;46.89;98956.78;4787632;29;20097;-82
2021/01/15 08:59:33;;;;;;;2.10;1.90;;;;;;;3.61;46.84;98974.63;4769208;30;20046;-82
2021/01/15 09:12:49;;;;;;;5.72;2.20;;;;;;;3.72;45.84;98957.91;4777512;30;20043;-84
2021/01/15 09:32:56;;;;;;;3.63;2.67;;;;;;;3.76;45.61;98934.44;4959202;29;20050;-83
2021/01/15 09:50:34;;;;;;;2.63;2.42;;;;;;;3.87;44.72;98920.41;4913763;29;20089;-83
2021/01/15 09:54:31;;;;;;;2.28;2.05;;;;;;;3.91;43.49;98923.41;4901080;29;20077;-82
2021/01/15 09:57:43;;;;;;;3.30;2.20;;;;;;;3.90;44.40;98921.78;4892878;29;20075;-82
2021/01/15 10:03:47;;;;;;;4.13;2.15;;;;;;;3.98;43.27;98927.50;4906490;29;20043;-82
2021/01/15 10:20:26;;;;;;;4.53;3.00;;;;;;;3.94;43.78;98913.16;4899888;29;20067;-84
2021/01/15 10:23:56;;;;;;;4.47;2.95;;;;;;;3.98;44.03;98911.63;4866350;29;20029;-83
2021/01/15 10:26:52;;;;;;;3.50;2.40;;;;;;;4.07;44.05;98916.53;4857692;29;20059;-82
2021/01/15 10:29:33;;;;;;;4.88;2.90;;;;;;;4.13;44.04;98923.53;4856283;29;20125;-82
2021/01/15 10:36:33;;;;;;;4.03;2.90;;;;;;;4.22;43.90;98921.31;4810817;29;20049;-82
2021/01/15 10:43:02;;;;;;;2.70;2.17;;;;;;;4.25;43.18;98912.91;4828559;29;20063;-83
2021/01/15 11:03:36;;;;;;;3.05;1.70;;;;;;;4.42;41.52;98873.19;4748117;30;20048;-82
2021/01/15 15:50:15;;;;;;;78.32;29.05;;;;;;;4.27;42.35;98922.22;5058105;23;20403;-81
2021/01/15 16:08:45;;;;;;;69.07;33.70;;;;;;;4.11;43.17;98921.13;4888067;29;20068;-83
2021/01/15 16:11:10;;;;;;;83.00;40.10;;;;;;;4.11;43.58;98921.13;4876558;29;20486;-79
2021/01/15 16:44:56;;;;;;;35.15;18.67;;;;;;;3.79;43.87;98934.78;5760630;23;20032;-82
2021/01/15 16:47:23;;;;;;;48.22;23.52;;;;;;;3.79;43.91;98941.94;5164452;23;20045;-82
2021/01/15 16:52:24;;;;;;;37.95;20.02;;;;;;;3.73;43.88;98937.56;5278263;23;20060;-79
2021/01/15 16:57:29;;;;;;;49.35;25.05;;;;;;;3.72;44.23;98946.53;4962878;23;20092;-78
2021/01/15 16:59:56;;;;;;;54.25;32.60;;;;;;;3.69;44.55;98947.81;5105417;23;20147;-76
2021/01/15 17:02:22;;;;;;;53.42;27.38;;;;;;;3.69;44.88;98950.47;4869067;29;20033;-77
2021/01/15 17:04:47;;;;;;;52.85;29.63;;;;;;;3.66;45.20;98945.63;4877586;29;20131;-77
2021/01/15 17:07:15;;;;;;;74.60;36.65;;;;;;;3.63;45.45;98948.75;4859299;29;20121;-77
2021/01/15 17:09:46;;;;;;;46.60;25.27;;;;;;;3.60;44.74;98943.91;4877555;29;20534;-77
2021/01/15 17:12:19;;;;;;;23.23;12.70;;;;;;;3.42;44.14;98950.13;4863580;29;20044;-76
2021/01/15 17:14:48;;;;;;;103.10;42.40;;;;;;;3.23;45.31;98962.69;4865434;29;20041;-82
2021/01/15 17:20:09;;;;;;;56.78;24.55;;;;;;;2.97;46.59;98965.53;4903400;29;20553;-78
2021/01/15 17:22:48;;;;;;;80.95;34.20;;;;;;;2.87;47.38;98963.44;4882966;29;20040;-81
2021/01/15 17:25:24;;;;;;;72.82;27.45;;;;;;;2.77;47.89;98967.66;4897508;29;20028;-76
2021/01/15 17:27:56;;;;;;;41.15;19.80;;;;;;;2.66;47.85;98963.97;4882112;29;20040;-79
2021/01/15 17:30:31;;;;;;;51.83;22.48;;;;;;;2.61;49.00;98972.56;4890162;29;20043;-80
2021/01/15 18:08:47;;;;;;;97.40;45.05;;;;;;;2.43;51.93;98957.59;5901384;23;20027;31
2021/01/15 18:38:39;;;;;;;100.07;45.20;;;;;;;2.10;53.88;98950.13;5844857;23;19931;-82
2021/01/15 18:41:29;;;;;;;98.45;46.20;;;;;;;2.07;54.06;98948.72;4931862;29;20108;-81
2021/01/15 18:43:55;;;;;;;103.85;48.63;;;;;;;2.03;53.88;98945.72;4925125;29;20110;-82
2021/01/15 18:46:41;;;;;;;112.57;51.58;;;;;;;2.04;54.15;98949.19;4942078;29;20020;-83
2021/01/15 18:58:33;;;;;;;115.28;54.50;;;;;;;1.88;54.87;98947.94;5640737;23;20441;-81
2021/01/15 19:00:59;;;;;;;;;;;;;;;1.92;54.72;98949.91;4914953;29;20134;-79
2021/01/15 19:03:33;;;;;;;103.68;52.53;;;;;;;1.86;54.46;98952.66;4927330;29;19966;-81
2021/01/15 19:09:11;;;;;;;106.65;55.28;;;;;;;1.88;54.56;98966.41;4949825;29;20626;-81
2021/01/15 19:15:34;;;;;;;97.83;48.80;;;;;;;1.79;55.22;98973.81;5037315;23;20087;-81
2021/01/15 19:36:12;;;;;;;64.50;33.63;;;;;;;1.49;56.30;98992.16;4900394;29;20116;-83
2021/01/15 19:46:22;;;;;;;68.95;31.60;;;;;;;1.37;56.92;98984.97;4826326;29;20126;-81
2021/01/15 19:56:06;;;;;;;60.55;28.80;;;;;;;1.22;57.04;98985.31;4809572;29;20216;-82
2021/01/15 20:18:42;;;;;;;72.47;31.58;;;;;;;0.93;58.75;98990.19;4929160;23;20087;-81
2021/01/15 20:35:23;;;;;;;59.78;28.73;;;;;;;0.75;59.99;98977.75;4898025;29;20097;-80
2021/01/15 20:46:40;;;;;;;35.55;19.05;;;;;;;0.76;59.51;98973.31;4888814;29;20063;-78
2021/01/15 20:49:05;;;;;;;47.55;23.92;;;;;;;0.77;59.64;98969.69;4883426;29;20036;-77
2021/01/15 22:02:29;;;;;;;45.75;21.88;;;;;;;0.09;62.45;98932.41;5743117;23;20494;-80
2021/01/15 22:04:55;;;;;;;57.15;23.17;;;;;;;0.09;62.20;98935.03;4875115;29;20032;-78
2021/01/15 22:07:20;;;;;;;51.85;22.25;;;;;;;0.07;62.36;98931.81;4879942;29;20043;-77
2021/01/15 22:09:45;;;;;;;52.67;23.77;;;;;;;0.07;62.55;98928.38;4879322;29;20462;-77
2021/01/15 22:12:11;;;;;;;46.63;22.35;;;;;;;0.03;62.30;98928.00;4879128;29;20088;-75
2021/01/15 22:14:36;;;;;;;49.05;23.50;;;;;;;0.01;62.64;98929.22;4878873;29;20028;-76
2021/01/15 22:17:02;;;;;;;45.25;23.10;;;;;;;-0.03;62.73;98936.72;4880377;29;20028;-76
2021/01/15 22:19:27;;;;;;;50.25;23.85;;;;;;;-0.05;62.69;98934.31;4878939;29;20057;-76
2021/01/15 22:21:52;;;;;;;49.80;22.45;;;;;;;-0.06;62.49;98940.59;4880531;29;20039;-77
2021/01/15 22:24:18;;;;;;;38.95;19.17;;;;;;;-0.06;62.29;98937.13;4878773;29;20037;-77
2021/01/15 22:26:43;;;;;;;36.40;19.23;;;;;;;-0.08;62.33;98936.56;4879604;29;20036;-77
2021/01/15 22:29:10;;;;;;;38.60;19.80;;;;;;;-0.08;62.43;98928.66;4879936;29;20463;-78
2021/01/15 22:31:36;;;;;;;34.25;18.08;;;;;;;-0.08;62.54;98934.72;4879766;29;20045;-77
2021/01/15 22:34:01;;;;;;;37.45;17.50;;;;;;;-0.09;62.54;98937.56;4879410;29;20505;-77
2021/01/15 22:36:26;;;;;;;27.30;14.40;;;;;;;-0.07;62.49;98936.34;4878727;29;20060;-77
2021/01/15 22:38:52;;;;;;;25.55;14.05;;;;;;;-0.06;62.52;98929.25;4878769;29;20131;-77
2021/01/15 22:41:17;;;;;;;30.48;14.70;;;;;;;-0.05;62.09;98929.06;4879493;29;20522;-78
2021/01/15 22:43:44;;;;;;;24.55;12.75;;;;;;;-0.07;61.76;98917.16;4879536;29;20029;-76
2021/01/15 22:46:13;;;;;;;26.15;12.73;;;;;;;-0.04;61.68;98907.00;4879068;29;20036;-75
2021/01/15 22:48:38;;;;;;;22.50;10.75;;;;;;;-0.02;61.63;98909.44;4879954;29;20208;-78
2021/01/15 22:51:04;;;;;;;20.48;10.82;;;;;;;-0.01;60.92;98903.94;4878782;29;20554;-77
2021/01/15 22:53:34;;;;;;;19.50;9.93;;;;;;;0.01;60.50;98902.94;4879357;29;20032;-77
2021/01/15 22:56:01;;;;;;;16.63;9.65;;;;;;;0.03;60.25;98909.59;4879993;29;20041;-77
2021/01/15 22:58:27;;;;;;;15.43;8.17;;;;;;;0.04;59.79;98900.69;4879299;29;20048;-78
2021/01/15 23:00:54;;;;;;;13.25;8.23;;;;;;;0.08;59.32;98901.09;4879590;29;20035;-78
2021/01/15 23:03:22;;;;;;;16.92;8.55;;;;;;;0.08;59.71;98894.00;4895538;29;20048;-77
2021/01/15 23:05:47;;;;;;;17.63;8.00;;;;;;;0.12;59.79;98892.56;4879513;29;20040;-77
2021/01/15 23:08:13;;;;;;;18.80;10.00;;;;;;;0.12;59.22;98884.69;4879616;29;20032;-78
2021/01/15 23:10:42;;;;;;;25.77;8.90;;;;;;;0.12;59.63;98884.69;4866313;29;20040;-77
2021/01/15 23:13:09;;;;;;;16.63;9.23;;;;;;;0.13;59.66;98886.25;4881416;29;20029;-78
2021/01/15 23:15:35;;;;;;;16.13;8.95;;;;;;;0.16;59.33;98887.69;4879500;29;20546;-77
2021/01/15 23:18:04;;;;;;;12.77;7.82;;;;;;;0.13;59.70;98877.59;4879458;29;20040;-77
2021/01/15 23:20:30;;;;;;;20.65;11.15;;;;;;;0.18;60.04;98879.59;4879052;29;20036;-78
2021/01/15 23:22:55;;;;;;;21.67;12.50;;;;;;;0.19;60.20;98878.56;4879576;29;20537;-77
2021/01/15 23:25:23;;;;;;;23.50;11.98;;;;;;;0.21;60.01;98885.22;4880207;29;20032;-77
2021/01/15 23:27:51;;;;;;;24.45;12.13;;;;;;;0.21;60.18;98877.34;4881293;29;20064;-78
2021/01/15 23:30:20;;;;;;;18.58;10.75;;;;;;;0.24;60.06;98882.16;4886550;29;20036;-78
2021/01/15 23:32:45;;;;;;;19.83;10.13;;;;;;;0.24;59.87;98886.63;4886055;29;20067;-77
2021/01/15 23:35:14;;;;;;;18.10;9.50;;;;;;;0.25;60.21;98878.50;4883417;29;20040;-76
2021/01/15 23:37:45;;;;;;;16.27;8.27;;;;;;;0.25;60.09;98877.72;4880378;29;20032;-77
2021/01/15 23:40:11;;;;;;;14.90;8.80;;;;;;;0.28;60.15;98885.16;4878982;29;20611;-76
2021/01/15 23:42:37;;;;;;;14.70;7.95;;;;;;;0.30;60.52;98875.25;4877894;29;20124;-76
2021/01/15 23:45:03;;;;;;;16.15;8.95;;;;;;;0.27;59.84;98870.41;4878165;29;20108;-78
2021/01/15 23:47:28;;;;;;;17.08;8.05;;;;;;;0.25;60.17;98875.88;4878400;29;20549;-76
2021/01/15 23:49:53;;;;;;;15.25;9.15;;;;;;;0.29;60.01;98876.25;4880138;29;20486;-75
2021/01/15 23:52:19;;;;;;;21.40;10.25;;;;;;;0.29;59.96;98879.72;4881519;29;20039;-76
2021/01/15 23:54:44;;;;;;;20.63;11.48;;;;;;;0.31;60.13;98874.22;4882668;29;20032;-78
2021/01/15 23:57:09;;;;;;;20.05;9.88;;;;;;;0.32;60.44;98865.31;4882402;29;20454;-77
2021/01/15 23:59:35;;;;;;;19.13;11.68;;;;;;;0.33;60.59;98861.69;4882290;29;20539;-77
